sensor_id;sensor_type;location;lat;lon;timestamp;temperature;humidity
9971;DHT22;5026;51.494;11.974;2022-12-20T00:01:08;5.30;99.90
9971;DHT22;5026;51.494;11.974;2022-12-20T00:03:35;5.20;99.90
9971;DHT22;5026;51.494;11.974;2022-12-20T00:06:02;5.20;99.90
9971;DHT22;5026;51.494;11.974;2022-12-20T00:08:29;5.20;99.90
9971;DHT22;5026;51.494;11.974;2022-12-20T00:10:59;5.20;99.90
9971;DHT22;5026;51.494;11.974;2022-12-20T00:13:28;5.10;99.90
9971;DHT22;5026;51.494;11.974;2022-12-20T00:16:03;5.10;99.90
9971;DHT22;5026;51.494;11.974;2022-12-20T00:18:31;5.10;99.90
9971;DHT22;5026;51.494;11.974;2022-12-20T00:20:58;5.10;99.90
9971;DHT22;5026;51.494;11.974;2022-12-20T00:23:25;5.10;99.90
9971;DHT22;5026;51.494;11.974;2022-12-20T00:25:52;5.20;99.90
9971;DHT22;5026;51.494;11.974;2022-12-20T00:28:19;5.20;99.90
9971;DHT22;5026;51.494;11.974;2022-12-20T00:30:52;5.30;99.90
9971;DHT22;5026;51.494;11.974;2022-12-20T00:33:19;5.30;99.90
9971;DHT22;5026;51.494;11.974;2022-12-20T00:35:46;5.30;99.90
9971;DHT22;5026;51.494;11.974;2022-12-20T00:38:13;5.30;99.90
9971;DHT22;5026;51.494;11.974;2022-12-20T00:40:40;5.30;99.90
9971;DHT22;5026;51.494;11.974;2022-12-20T00:43:07;5.30;99.90
9971;DHT22;5026;51.494;11.974;2022-12-20T00:45:34;5.30;99.90
9971;DHT22;5026;51.494;11.974;2022-12-20T00:48:03;5.30;99.90
9971;DHT22;5026;51.494;11.974;2022-12-20T00:50:30;5.30;99.90
9971;DHT22;5026;51.494;11.974;2022-12-20T00:52:57;5.30;99.90
9971;DHT22;5026;51.494;11.974;2022-12-20T00:55:23;5.30;99.90
9971;DHT22;5026;51.494;11.974;2022-12-20T00:57:50;5.30;99.90
9971;DHT22;5026;51.494;11.974;2022-12-20T01:00:18;5.30;99.90
9971;DHT22;5026;51.494;11.974;2022-12-20T01:02:45;5.30;99.90
9971;DHT22;5026;51.494;11.974;2022-12-20T01:05:14;5.40;99.90
9971;DHT22;5026;51.494;11.974;2022-12-20T01:07:41;5.40;99.90
9971;DHT22;5026;51.494;11.974;2022-12-20T01:10:09;5.30;99.90
9971;DHT22;5026;51.494;11.974;2022-12-20T01:12:36;5.30;99.90
9971;DHT22;5026;51.494;11.974;2022-12-20T01:15:04;5.20;99.90
9971;DHT22;5026;51.494;11.974;2022-12-20T01:17:31;5.20;99.90
9971;DHT22;5026;51.494;11.974;2022-12-20T01:19:58;5.40;99.90
9971;DHT22;5026;51.494;11.974;2022-12-20T01:22:26;5.20;99.90
9971;DHT22;5026;51.494;11.974;2022-12-20T01:24:53;5.20;99.90
9971;DHT22;5026;51.494;11.974;2022-12-20T01:27:20;6.60;99.90
9971;DHT22;5026;51.494;11.974;2022-12-20T01:29:47;5.30;99.90
9971;DHT22;5026;51.494;11.974;2022-12-20T01:32:14;5.20;99.90
9971;DHT22;5026;51.494;11.974;2022-12-20T01:34:41;5.10;99.90
9971;DHT22;5026;51.494;11.974;2022-12-20T01:37:08;5.10;99.90
9971;DHT22;5026;51.494;11.974;2022-12-20T01:39:37;5.30;99.90
9971;DHT22;5026;51.494;11.974;2022-12-20T01:42:04;5.10;99.90
9971;DHT22;5026;51.494;11.974;2022-12-20T01:44:52;5.10;99.90
9971;DHT22;5026;51.494;11.974;2022-12-20T01:47:20;5.10;99.90
9971;DHT22;5026;51.494;11.974;2022-12-20T01:49:48;5.20;99.90
9971;DHT22;5026;51.494;11.974;2022-12-20T01:52:20;5.20;99.90
9971;DHT22;5026;51.494;11.974;2022-12-20T01:54:51;5.20;99.90
9971;DHT22;5026;51.494;11.974;2022-12-20T01:57:21;5.30;99.90
9971;DHT22;5026;51.494;11.974;2022-12-20T01:59:51;5.30;99.90
9971;DHT22;5026;51.494;11.974;2022-12-20T02:02:19;5.30;99.90
9971;DHT22;5026;51.494;11.974;2022-12-20T02:04:46;5.30;99.90
9971;DHT22;5026;51.494;11.974;2022-12-20T02:07:19;5.30;99.90
9971;DHT22;5026;51.494;11.974;2022-12-20T02:09:48;5.40;99.90
9971;DHT22;5026;51.494;11.974;2022-12-20T02:12:19;6.20;99.90
9971;DHT22;5026;51.494;11.974;2022-12-20T02:15:02;5.50;99.90
9971;DHT22;5026;51.494;11.974;2022-12-20T02:17:39;5.60;99.90
9971;DHT22;5026;51.494;11.974;2022-12-20T02:20:32;5.60;99.90
9971;DHT22;5026;51.494;11.974;2022-12-20T02:23:15;5.60;99.90
9971;DHT22;5026;51.494;11.974;2022-12-20T02:25:52;5.70;99.90
9971;DHT22;5026;51.494;11.974;2022-12-20T02:28:37;5.70;99.90
9971;DHT22;5026;51.494;11.974;2022-12-20T02:31:11;4.60;99.90
9971;DHT22;5026;51.494;11.974;2022-12-20T02:33:41;5.90;99.90
9971;DHT22;5026;51.494;11.974;2022-12-20T02:36:09;5.90;99.90
9971;DHT22;5026;51.494;11.974;2022-12-20T02:38:37;5.90;99.90
9971;DHT22;5026;51.494;11.974;2022-12-20T02:41:08;6.10;99.90
9971;DHT22;5026;51.494;11.974;2022-12-20T02:43:39;5.80;99.90
9971;DHT22;5026;51.494;11.974;2022-12-20T02:46:26;7.10;99.90
9971;DHT22;5026;51.494;11.974;2022-12-20T02:48:57;6.00;99.90
9971;DHT22;5026;51.494;11.974;2022-12-20T02:51:27;5.80;99.90
9971;DHT22;5026;51.494;11.974;2022-12-20T02:53:55;5.80;99.90
9971;DHT22;5026;51.494;11.974;2022-12-20T02:56:27;5.80;99.90
9971;DHT22;5026;51.494;11.974;2022-12-20T02:59:00;6.20;99.90
9971;DHT22;5026;51.494;11.974;2022-12-20T03:01:32;5.80;99.90
9971;DHT22;5026;51.494;11.974;2022-12-20T03:04:00;5.80;99.90
9971;DHT22;5026;51.494;11.974;2022-12-20T03:06:27;5.80;99.90
9971;DHT22;5026;51.494;11.974;2022-12-20T03:08:55;5.80;99.90
9971;DHT22;5026;51.494;11.974;2022-12-20T03:11:22;5.90;99.90
9971;DHT22;5026;51.494;11.974;2022-12-20T03:13:49;5.90;99.90
9971;DHT22;5026;51.494;11.974;2022-12-20T03:16:16;6.00;99.90
9971;DHT22;5026;51.494;11.974;2022-12-20T03:18:44;6.00;99.90
9971;DHT22;5026;51.494;11.974;2022-12-20T03:21:12;6.00;99.90
9971;DHT22;5026;51.494;11.974;2022-12-20T03:23:39;7.10;99.90
9971;DHT22;5026;51.494;11.974;2022-12-20T03:26:06;6.10;99.90
9971;DHT22;5026;51.494;11.974;2022-12-20T03:28:33;6.50;99.90
9971;DHT22;5026;51.494;11.974;2022-12-20T03:31:00;6.20;99.90
9971;DHT22;5026;51.494;11.974;2022-12-20T03:33:28;6.10;99.90
9971;DHT22;5026;51.494;11.974;2022-12-20T03:35:56;6.10;99.90
9971;DHT22;5026;51.494;11.974;2022-12-20T03:38:23;6.20;99.90
9971;DHT22;5026;51.494;11.974;2022-12-20T03:40:50;6.20;99.90
9971;DHT22;5026;51.494;11.974;2022-12-20T03:43:17;6.20;99.90
9971;DHT22;5026;51.494;11.974;2022-12-20T03:45:44;6.90;99.90
9971;DHT22;5026;51.494;11.974;2022-12-20T03:48:11;6.20;99.90
9971;DHT22;5026;51.494;11.974;2022-12-20T03:50:38;6.30;99.90
9971;DHT22;5026;51.494;11.974;2022-12-20T03:53:06;6.60;99.90
9971;DHT22;5026;51.494;11.974;2022-12-20T03:55:33;6.20;99.90
9971;DHT22;5026;51.494;11.974;2022-12-20T03:58:00;6.20;99.90
9971;DHT22;5026;51.494;11.974;2022-12-20T04:00:27;6.20;99.90
9971;DHT22;5026;51.494;11.974;2022-12-20T04:02:54;6.20;99.90
9971;DHT22;5026;51.494;11.974;2022-12-20T04:05:21;6.20;99.90
9971;DHT22;5026;51.494;11.974;2022-12-20T04:07:48;6.30;99.90
9971;DHT22;5026;51.494;11.974;2022-12-20T04:10:16;6.30;99.90
9971;DHT22;5026;51.494;11.974;2022-12-20T04:12:43;6.30;99.90
9971;DHT22;5026;51.494;11.974;2022-12-20T04:15:10;6.30;99.90
9971;DHT22;5026;51.494;11.974;2022-12-20T04:17:37;6.30;99.90
9971;DHT22;5026;51.494;11.974;2022-12-20T04:20:06;6.30;99.90
9971;DHT22;5026;51.494;11.974;2022-12-20T04:22:44;6.30;99.90
9971;DHT22;5026;51.494;11.974;2022-12-20T04:25:12;6.40;99.90
9971;DHT22;5026;51.494;11.974;2022-12-20T04:27:40;6.40;99.90
9971;DHT22;5026;51.494;11.974;2022-12-20T04:30:08;6.30;99.90
9971;DHT22;5026;51.494;11.974;2022-12-20T04:32:35;6.30;99.90
9971;DHT22;5026;51.494;11.974;2022-12-20T04:35:03;6.30;99.90
9971;DHT22;5026;51.494;11.974;2022-12-20T04:37:30;6.30;99.90
9971;DHT22;5026;51.494;11.974;2022-12-20T04:39:57;6.30;99.90
9971;DHT22;5026;51.494;11.974;2022-12-20T04:42:24;6.30;99.90
9971;DHT22;5026;51.494;11.974;2022-12-20T04:44:53;6.30;99.90
9971;DHT22;5026;51.494;11.974;2022-12-20T04:47:20;6.40;99.90
9971;DHT22;5026;51.494;11.974;2022-12-20T04:49:47;6.30;99.90
9971;DHT22;5026;51.494;11.974;2022-12-20T04:52:14;6.30;99.90
9971;DHT22;5026;51.494;11.974;2022-12-20T04:54:58;6.40;99.90
9971;DHT22;5026;51.494;11.974;2022-12-20T04:57:25;6.40;99.90
9971;DHT22;5026;51.494;11.974;2022-12-20T04:59:53;6.30;99.90
9971;DHT22;5026;51.494;11.974;2022-12-20T05:02:20;6.50;99.90
9971;DHT22;5026;51.494;11.974;2022-12-20T05:04:47;6.30;99.90
9971;DHT22;5026;51.494;11.974;2022-12-20T05:07:14;6.20;99.90
9971;DHT22;5026;51.494;11.974;2022-12-20T05:09:41;6.20;99.90
9971;DHT22;5026;51.494;11.974;2022-12-20T05:12:08;6.50;99.90
9971;DHT22;5026;51.494;11.974;2022-12-20T05:14:35;6.30;99.90
9971;DHT22;5026;51.494;11.974;2022-12-20T05:17:03;6.30;99.90
9971;DHT22;5026;51.494;11.974;2022-12-20T05:19:30;6.30;99.90
9971;DHT22;5026;51.494;11.974;2022-12-20T05:21:57;6.30;99.90
9971;DHT22;5026;51.494;11.974;2022-12-20T05:24:43;6.30;99.90
9971;DHT22;5026;51.494;11.974;2022-12-20T05:27:28;6.30;99.90
9971;DHT22;5026;51.494;11.974;2022-12-20T05:29:55;6.30;99.90
9971;DHT22;5026;51.494;11.974;2022-12-20T05:32:23;6.50;99.90
9971;DHT22;5026;51.494;11.974;2022-12-20T05:34:50;8.10;99.90
9971;DHT22;5026;51.494;11.974;2022-12-20T05:37:17;6.50;99.90
9971;DHT22;5026;51.494;11.974;2022-12-20T05:39:44;6.60;99.90
9971;DHT22;5026;51.494;11.974;2022-12-20T05:42:11;7.90;99.90
9971;DHT22;5026;51.494;11.974;2022-12-20T05:44:37;6.60;99.90
9971;DHT22;5026;51.494;11.974;2022-12-20T05:49:33;6.80;99.90
9971;DHT22;5026;51.494;11.974;2022-12-20T05:52:00;6.90;99.90
9971;DHT22;5026;51.494;11.974;2022-12-20T05:54:27;6.90;99.90
9971;DHT22;5026;51.494;11.974;2022-12-20T05:56:54;7.50;99.90
9971;DHT22;5026;51.494;11.974;2022-12-20T05:59:21;7.20;99.90
9971;DHT22;5026;51.494;11.974;2022-12-20T06:01:48;7.00;99.90
9971;DHT22;5026;51.494;11.974;2022-12-20T06:04:15;7.10;99.90
9971;DHT22;5026;51.494;11.974;2022-12-20T06:06:43;7.10;99.90
9971;DHT22;5026;51.494;11.974;2022-12-20T06:09:10;8.10;99.90
9971;DHT22;5026;51.494;11.974;2022-12-20T06:11:37;7.50;99.90
9971;DHT22;5026;51.494;11.974;2022-12-20T06:14:04;7.00;99.90
9971;DHT22;5026;51.494;11.974;2022-12-20T06:16:31;7.00;99.90
9971;DHT22;5026;51.494;11.974;2022-12-20T06:21:26;7.00;99.90
9971;DHT22;5026;51.494;11.974;2022-12-20T06:23:54;6.90;99.90
9971;DHT22;5026;51.494;11.974;2022-12-20T06:26:21;6.90;99.90
9971;DHT22;5026;51.494;11.974;2022-12-20T06:28:48;7.00;99.90
9971;DHT22;5026;51.494;11.974;2022-12-20T06:31:17;7.00;99.90
9971;DHT22;5026;51.494;11.974;2022-12-20T06:33:44;7.00;99.90
9971;DHT22;5026;51.494;11.974;2022-12-20T06:36:11;6.90;99.90
9971;DHT22;5026;51.494;11.974;2022-12-20T06:38:38;6.80;99.90
9971;DHT22;5026;51.494;11.974;2022-12-20T06:41:06;6.90;99.90
9971;DHT22;5026;51.494;11.974;2022-12-20T06:43:33;6.60;99.90
9971;DHT22;5026;51.494;11.974;2022-12-20T06:46:00;6.80;99.90
9971;DHT22;5026;51.494;11.974;2022-12-20T06:48:27;7.30;99.90
9971;DHT22;5026;51.494;11.974;2022-12-20T06:50:54;6.60;99.90
9971;DHT22;5026;51.494;11.974;2022-12-20T06:53:21;6.30;99.90
9971;DHT22;5026;51.494;11.974;2022-12-20T06:55:49;6.20;99.90
9971;DHT22;5026;51.494;11.974;2022-12-20T06:58:17;6.10;99.90
9971;DHT22;5026;51.494;11.974;2022-12-20T07:00:44;6.10;99.90
9971;DHT22;5026;51.494;11.974;2022-12-20T07:03:12;6.10;99.90
9971;DHT22;5026;51.494;11.974;2022-12-20T07:05:39;6.10;99.90
9971;DHT22;5026;51.494;11.974;2022-12-20T07:08:06;6.10;99.90
9971;DHT22;5026;51.494;11.974;2022-12-20T07:10:35;6.00;99.90
9971;DHT22;5026;51.494;11.974;2022-12-20T07:13:02;6.10;99.90
9971;DHT22;5026;51.494;11.974;2022-12-20T07:15:30;6.20;99.90
9971;DHT22;5026;51.494;11.974;2022-12-20T07:17:57;6.20;99.90
9971;DHT22;5026;51.494;11.974;2022-12-20T07:20:24;6.30;99.90
9971;DHT22;5026;51.494;11.974;2022-12-20T07:22:51;6.30;99.90
9971;DHT22;5026;51.494;11.974;2022-12-20T07:25:18;6.80;99.90
9971;DHT22;5026;51.494;11.974;2022-12-20T07:27:46;6.40;99.90
9971;DHT22;5026;51.494;11.974;2022-12-20T07:30:14;6.40;99.90
9971;DHT22;5026;51.494;11.974;2022-12-20T07:32:42;6.40;99.90
9971;DHT22;5026;51.494;11.974;2022-12-20T07:35:10;6.40;99.90
9971;DHT22;5026;51.494;11.974;2022-12-20T07:37:37;6.40;99.90
9971;DHT22;5026;51.494;11.974;2022-12-20T07:40:05;6.40;99.90
9971;DHT22;5026;51.494;11.974;2022-12-20T07:42:33;6.30;99.90
9971;DHT22;5026;51.494;11.974;2022-12-20T07:45:01;6.30;99.90
9971;DHT22;5026;51.494;11.974;2022-12-20T07:47:28;6.20;99.90
9971;DHT22;5026;51.494;11.974;2022-12-20T07:49:56;6.10;99.90
9971;DHT22;5026;51.494;11.974;2022-12-20T07:52:24;6.10;99.90
9971;DHT22;5026;51.494;11.974;2022-12-20T07:54:55;6.00;99.90
9971;DHT22;5026;51.494;11.974;2022-12-20T07:57:28;5.60;99.90
9971;DHT22;5026;51.494;11.974;2022-12-20T07:59:57;6.00;99.90
9971;DHT22;5026;51.494;11.974;2022-12-20T08:02:29;5.90;99.90
9971;DHT22;5026;51.494;11.974;2022-12-20T08:04:59;5.90;99.90
9971;DHT22;5026;51.494;11.974;2022-12-20T08:07:27;5.80;99.90
9971;DHT22;5026;51.494;11.974;2022-12-20T08:09:55;5.90;99.90
9971;DHT22;5026;51.494;11.974;2022-12-20T08:12:23;5.90;99.90
9971;DHT22;5026;51.494;11.974;2022-12-20T08:14:50;6.00;99.90
9971;DHT22;5026;51.494;11.974;2022-12-20T08:17:21;6.10;99.90
9971;DHT22;5026;51.494;11.974;2022-12-20T08:19:48;6.30;99.90
9971;DHT22;5026;51.494;11.974;2022-12-20T08:22:17;6.40;99.90
9971;DHT22;5026;51.494;11.974;2022-12-20T08:27:12;6.60;99.90
9971;DHT22;5026;51.494;11.974;2022-12-20T08:29:39;7.00;99.90
9971;DHT22;5026;51.494;11.974;2022-12-20T08:32:06;8.20;99.90
9971;DHT22;5026;51.494;11.974;2022-12-20T08:34:33;6.70;99.90
9971;DHT22;5026;51.494;11.974;2022-12-20T08:37:00;6.70;99.90
9971;DHT22;5026;51.494;11.974;2022-12-20T08:39:29;6.60;99.90
9971;DHT22;5026;51.494;11.974;2022-12-20T08:41:55;6.60;99.90
9971;DHT22;5026;51.494;11.974;2022-12-20T08:44:22;6.60;99.90
9971;DHT22;5026;51.494;11.974;2022-12-20T08:46:50;6.50;99.90
9971;DHT22;5026;51.494;11.974;2022-12-20T08:51:45;6.30;99.90
9971;DHT22;5026;51.494;11.974;2022-12-20T08:54:12;8.10;99.90
9971;DHT22;5026;51.494;11.974;2022-12-20T08:56:41;6.10;99.90
9971;DHT22;5026;51.494;11.974;2022-12-20T08:59:08;6.10;99.90
9971;DHT22;5026;51.494;11.974;2022-12-20T09:01:35;6.10;99.90
9971;DHT22;5026;51.494;11.974;2022-12-20T09:04:03;6.30;99.90
9971;DHT22;5026;51.494;11.974;2022-12-20T09:06:30;6.00;99.90
9971;DHT22;5026;51.494;11.974;2022-12-20T09:08:58;6.10;99.90
9971;DHT22;5026;51.494;11.974;2022-12-20T09:11:26;6.10;99.90
9971;DHT22;5026;51.494;11.974;2022-12-20T09:13:56;7.00;99.90
9971;DHT22;5026;51.494;11.974;2022-12-20T09:16:24;6.20;99.90
9971;DHT22;5026;51.494;11.974;2022-12-20T09:18:54;6.20;99.90
9971;DHT22;5026;51.494;11.974;2022-12-20T09:21:21;6.70;99.90
9971;DHT22;5026;51.494;11.974;2022-12-20T09:23:49;6.20;99.90
9971;DHT22;5026;51.494;11.974;2022-12-20T09:26:17;6.20;99.90
9971;DHT22;5026;51.494;11.974;2022-12-20T09:28:44;6.70;99.90
9971;DHT22;5026;51.494;11.974;2022-12-20T09:31:14;6.30;99.90
9971;DHT22;5026;51.494;11.974;2022-12-20T09:33:42;6.90;99.90
9971;DHT22;5026;51.494;11.974;2022-12-20T09:36:11;6.40;99.90
9971;DHT22;5026;51.494;11.974;2022-12-20T09:41:08;6.50;99.90
9971;DHT22;5026;51.494;11.974;2022-12-20T09:43:41;5.30;99.90
9971;DHT22;5026;51.494;11.974;2022-12-20T09:46:13;6.50;99.90
9971;DHT22;5026;51.494;11.974;2022-12-20T09:48:42;6.40;99.90
9971;DHT22;5026;51.494;11.974;2022-12-20T09:51:19;6.40;99.90
9971;DHT22;5026;51.494;11.974;2022-12-20T09:53:54;6.40;99.90
9971;DHT22;5026;51.494;11.974;2022-12-20T09:56:27;6.50;99.90
9971;DHT22;5026;51.494;11.974;2022-12-20T09:58:59;6.60;99.90
9971;DHT22;5026;51.494;11.974;2022-12-20T10:01:31;6.30;99.90
9971;DHT22;5026;51.494;11.974;2022-12-20T10:04:01;6.70;99.90
9971;DHT22;5026;51.494;11.974;2022-12-20T10:06:39;6.70;99.90
9971;DHT22;5026;51.494;11.974;2022-12-20T10:09:16;6.80;99.90
9971;DHT22;5026;51.494;11.974;2022-12-20T10:12:00;6.90;99.90
9971;DHT22;5026;51.494;11.974;2022-12-20T10:14:41;7.20;99.90
9971;DHT22;5026;51.494;11.974;2022-12-20T10:17:14;6.90;99.90
9971;DHT22;5026;51.494;11.974;2022-12-20T10:19:55;8.40;99.90
9971;DHT22;5026;51.494;11.974;2022-12-20T10:22:31;7.40;99.90
9971;DHT22;5026;51.494;11.974;2022-12-20T10:25:10;7.00;99.90
9971;DHT22;5026;51.494;11.974;2022-12-20T10:27:40;7.10;99.90
9971;DHT22;5026;51.494;11.974;2022-12-20T10:30:12;7.00;99.90
9971;DHT22;5026;51.494;11.974;2022-12-20T10:32:42;6.90;99.90
9971;DHT22;5026;51.494;11.974;2022-12-20T10:35:23;6.80;99.90
9971;DHT22;5026;51.494;11.974;2022-12-20T10:37:59;6.50;99.90
9971;DHT22;5026;51.494;11.974;2022-12-20T10:40:28;6.40;99.90
9971;DHT22;5026;51.494;11.974;2022-12-20T10:42:56;6.40;99.90
9971;DHT22;5026;51.494;11.974;2022-12-20T10:45:30;6.50;99.90
9971;DHT22;5026;51.494;11.974;2022-12-20T10:48:00;6.60;99.90
9971;DHT22;5026;51.494;11.974;2022-12-20T10:50:28;6.70;99.90
9971;DHT22;5026;51.494;11.974;2022-12-20T10:53:18;6.70;99.90
9971;DHT22;5026;51.494;11.974;2022-12-20T10:55:46;6.70;99.90
9971;DHT22;5026;51.494;11.974;2022-12-20T10:58:16;6.70;99.90
9971;DHT22;5026;51.494;11.974;2022-12-20T11:00:44;6.60;99.90
9971;DHT22;5026;51.494;11.974;2022-12-20T11:03:17;6.60;99.90
9971;DHT22;5026;51.494;11.974;2022-12-20T11:05:56;6.70;99.90
9971;DHT22;5026;51.494;11.974;2022-12-20T11:08:24;7.10;99.90
9971;DHT22;5026;51.494;11.974;2022-12-20T11:11:10;6.60;99.90
9971;DHT22;5026;51.494;11.974;2022-12-20T11:13:38;6.80;99.90
9971;DHT22;5026;51.494;11.974;2022-12-20T11:16:22;7.00;99.90
9971;DHT22;5026;51.494;11.974;2022-12-20T11:19:00;7.30;99.90
9971;DHT22;5026;51.494;11.974;2022-12-20T11:21:33;7.50;99.90
9971;DHT22;5026;51.494;11.974;2022-12-20T11:24:09;7.70;99.90
9971;DHT22;5026;51.494;11.974;2022-12-20T11:26:56;7.70;99.90
9971;DHT22;5026;51.494;11.974;2022-12-20T11:29:41;7.70;99.90
9971;DHT22;5026;51.494;11.974;2022-12-20T11:32:16;7.60;99.90
9971;DHT22;5026;51.494;11.974;2022-12-20T11:34:53;7.50;99.90
9971;DHT22;5026;51.494;11.974;2022-12-20T11:37:25;7.70;99.90
9971;DHT22;5026;51.494;11.974;2022-12-20T11:40:05;7.70;99.90
9971;DHT22;5026;51.494;11.974;2022-12-20T11:42:44;7.70;99.90
9971;DHT22;5026;51.494;11.974;2022-12-20T11:45:20;7.60;99.90
9971;DHT22;5026;51.494;11.974;2022-12-20T11:48:16;7.40;99.90
9971;DHT22;5026;51.494;11.974;2022-12-20T11:51:00;7.30;99.90
9971;DHT22;5026;51.494;11.974;2022-12-20T11:53:34;7.30;99.90
9971;DHT22;5026;51.494;11.974;2022-12-20T11:56:07;7.80;99.90
9971;DHT22;5026;51.494;11.974;2022-12-20T11:58:47;7.30;99.90
9971;DHT22;5026;51.494;11.974;2022-12-20T12:01:18;7.20;99.90
9971;DHT22;5026;51.494;11.974;2022-12-20T12:03:56;7.20;99.90
9971;DHT22;5026;51.494;11.974;2022-12-20T12:06:29;7.20;99.90
9971;DHT22;5026;51.494;11.974;2022-12-20T12:09:12;7.30;99.90
9971;DHT22;5026;51.494;11.974;2022-12-20T12:11:45;7.30;99.90
9971;DHT22;5026;51.494;11.974;2022-12-20T12:14:21;7.30;99.90
9971;DHT22;5026;51.494;11.974;2022-12-20T12:16:53;7.20;99.90
9971;DHT22;5026;51.494;11.974;2022-12-20T12:19:27;7.10;99.90
9971;DHT22;5026;51.494;11.974;2022-12-20T12:22:01;7.10;99.90
9971;DHT22;5026;51.494;11.974;2022-12-20T12:24:34;7.10;99.90
9971;DHT22;5026;51.494;11.974;2022-12-20T12:27:04;7.00;99.90
9971;DHT22;5026;51.494;11.974;2022-12-20T12:29:32;7.10;99.90
9971;DHT22;5026;51.494;11.974;2022-12-20T12:32:04;6.80;99.90
9971;DHT22;5026;51.494;11.974;2022-12-20T12:34:46;6.70;99.90
9971;DHT22;5026;51.494;11.974;2022-12-20T12:37:47;6.60;99.90
9971;DHT22;5026;51.494;11.974;2022-12-20T12:40:49;6.60;99.90
9971;DHT22;5026;51.494;11.974;2022-12-20T12:43:48;6.60;99.90
9971;DHT22;5026;51.494;11.974;2022-12-20T12:46:18;6.50;99.90
9971;DHT22;5026;51.494;11.974;2022-12-20T12:48:51;6.60;99.90
9971;DHT22;5026;51.494;11.974;2022-12-20T12:51:25;6.50;99.90
9971;DHT22;5026;51.494;11.974;2022-12-20T12:54:02;6.60;99.90
9971;DHT22;5026;51.494;11.974;2022-12-20T12:56:36;6.40;99.90
9971;DHT22;5026;51.494;11.974;2022-12-20T12:59:18;6.60;99.90
9971;DHT22;5026;51.494;11.974;2022-12-20T13:01:47;6.70;99.90
9971;DHT22;5026;51.494;11.974;2022-12-20T13:04:24;6.70;99.90
9971;DHT22;5026;51.494;11.974;2022-12-20T13:06:56;6.70;99.90
9971;DHT22;5026;51.494;11.974;2022-12-20T13:09:40;6.70;99.90
9971;DHT22;5026;51.494;11.974;2022-12-20T13:15:45;6.60;99.90
9971;DHT22;5026;51.494;11.974;2022-12-20T13:18:23;6.60;99.90
9971;DHT22;5026;51.494;11.974;2022-12-20T13:21:16;6.60;99.90
9971;DHT22;5026;51.494;11.974;2022-12-20T13:23:44;6.60;99.90
9971;DHT22;5026;51.494;11.974;2022-12-20T13:26:49;6.70;99.90
9971;DHT22;5026;51.494;11.974;2022-12-20T13:29:23;6.70;99.90
9971;DHT22;5026;51.494;11.974;2022-12-20T13:31:50;6.60;99.90
9971;DHT22;5026;51.494;11.974;2022-12-20T13:34:41;6.60;99.90
9971;DHT22;5026;51.494;11.974;2022-12-20T13:37:28;6.50;99.90
9971;DHT22;5026;51.494;11.974;2022-12-20T13:40:19;6.40;99.90
9971;DHT22;5026;51.494;11.974;2022-12-20T13:42:51;6.40;99.90
9971;DHT22;5026;51.494;11.974;2022-12-20T13:45:20;6.40;99.90
9971;DHT22;5026;51.494;11.974;2022-12-20T13:47:50;6.30;99.90
9971;DHT22;5026;51.494;11.974;2022-12-20T13:50:23;6.30;99.90
9971;DHT22;5026;51.494;11.974;2022-12-20T13:52:51;6.30;99.90
9971;DHT22;5026;51.494;11.974;2022-12-20T13:55:26;6.20;99.90
9971;DHT22;5026;51.494;11.974;2022-12-20T13:58:03;6.40;99.90
9971;DHT22;5026;51.494;11.974;2022-12-20T14:00:31;6.30;99.90
9971;DHT22;5026;51.494;11.974;2022-12-20T14:03:00;6.30;99.90
9971;DHT22;5026;51.494;11.974;2022-12-20T14:05:31;6.40;99.90
9971;DHT22;5026;51.494;11.974;2022-12-20T14:08:01;6.40;99.90
9971;DHT22;5026;51.494;11.974;2022-12-20T14:10:31;6.40;99.90
9971;DHT22;5026;51.494;11.974;2022-12-20T14:12:59;6.50;99.90
9971;DHT22;5026;51.494;11.974;2022-12-20T14:15:28;6.40;99.90
9971;DHT22;5026;51.494;11.974;2022-12-20T14:17:56;6.40;99.90
9971;DHT22;5026;51.494;11.974;2022-12-20T14:20:27;6.30;99.90
9971;DHT22;5026;51.494;11.974;2022-12-20T14:22:57;7.50;99.90
9971;DHT22;5026;51.494;11.974;2022-12-20T14:25:30;6.30;99.90
9971;DHT22;5026;51.494;11.974;2022-12-20T14:27:59;6.30;99.90
9971;DHT22;5026;51.494;11.974;2022-12-20T14:30:31;6.30;99.90
9971;DHT22;5026;51.494;11.974;2022-12-20T14:33:01;6.30;99.90
9971;DHT22;5026;51.494;11.974;2022-12-20T14:35:28;6.20;99.90
9971;DHT22;5026;51.494;11.974;2022-12-20T14:37:57;6.20;99.90
9971;DHT22;5026;51.494;11.974;2022-12-20T14:40:25;6.20;99.90
9971;DHT22;5026;51.494;11.974;2022-12-20T14:42:52;6.30;99.90
9971;DHT22;5026;51.494;11.974;2022-12-20T14:45:24;6.10;99.90
9971;DHT22;5026;51.494;11.974;2022-12-20T14:48:00;6.10;99.90
9971;DHT22;5026;51.494;11.974;2022-12-20T14:50:31;6.10;99.90
9971;DHT22;5026;51.494;11.974;2022-12-20T14:53:00;6.10;99.90
9971;DHT22;5026;51.494;11.974;2022-12-20T14:55:33;6.00;99.90
9971;DHT22;5026;51.494;11.974;2022-12-20T14:58:06;5.90;99.90
9971;DHT22;5026;51.494;11.974;2022-12-20T15:00:57;6.30;99.90
9971;DHT22;5026;51.494;11.974;2022-12-20T15:03:24;5.80;99.90
9971;DHT22;5026;51.494;11.974;2022-12-20T15:05:53;5.90;99.90
9971;DHT22;5026;51.494;11.974;2022-12-20T15:08:23;5.90;99.90
9971;DHT22;5026;51.494;11.974;2022-12-20T15:10:55;5.90;99.90
9971;DHT22;5026;51.494;11.974;2022-12-20T15:13:26;5.90;99.90
9971;DHT22;5026;51.494;11.974;2022-12-20T15:15:58;5.80;99.90
9971;DHT22;5026;51.494;11.974;2022-12-20T15:18:25;5.80;99.90
9971;DHT22;5026;51.494;11.974;2022-12-20T15:20:59;5.80;99.90
9971;DHT22;5026;51.494;11.974;2022-12-20T15:23:27;5.80;99.90
9971;DHT22;5026;51.494;11.974;2022-12-20T15:25:53;5.70;99.90
9971;DHT22;5026;51.494;11.974;2022-12-20T15:28:22;5.70;99.90
9971;DHT22;5026;51.494;11.974;2022-12-20T15:30:50;5.70;99.90
9971;DHT22;5026;51.494;11.974;2022-12-20T15:33:21;5.60;99.90
9971;DHT22;5026;51.494;11.974;2022-12-20T15:35:49;6.30;99.90
9971;DHT22;5026;51.494;11.974;2022-12-20T15:38:17;5.70;99.90
9971;DHT22;5026;51.494;11.974;2022-12-20T15:40:46;6.80;99.90
9971;DHT22;5026;51.494;11.974;2022-12-20T15:43:15;5.90;99.90
9971;DHT22;5026;51.494;11.974;2022-12-20T15:45:44;5.90;99.90
9971;DHT22;5026;51.494;11.974;2022-12-20T15:48:16;5.90;99.90
9971;DHT22;5026;51.494;11.974;2022-12-20T15:50:52;5.80;99.90
9971;DHT22;5026;51.494;11.974;2022-12-20T15:53:22;5.80;99.90
9971;DHT22;5026;51.494;11.974;2022-12-20T15:55:53;5.70;99.90
9971;DHT22;5026;51.494;11.974;2022-12-20T15:58:20;5.70;99.90
9971;DHT22;5026;51.494;11.974;2022-12-20T16:00:47;6.10;99.90
9971;DHT22;5026;51.494;11.974;2022-12-20T16:03:17;5.60;99.90
9971;DHT22;5026;51.494;11.974;2022-12-20T16:05:46;5.60;99.90
9971;DHT22;5026;51.494;11.974;2022-12-20T16:08:13;5.60;99.90
9971;DHT22;5026;51.494;11.974;2022-12-20T16:10:41;6.30;99.90
9971;DHT22;5026;51.494;11.974;2022-12-20T16:13:13;5.50;99.90
9971;DHT22;5026;51.494;11.974;2022-12-20T16:15:41;5.60;99.90
9971;DHT22;5026;51.494;11.974;2022-12-20T16:18:08;6.00;99.90
9971;DHT22;5026;51.494;11.974;2022-12-20T16:20:35;5.50;99.90
9971;DHT22;5026;51.494;11.974;2022-12-20T16:23:04;5.50;99.90
9971;DHT22;5026;51.494;11.974;2022-12-20T16:25:34;5.40;99.90
9971;DHT22;5026;51.494;11.974;2022-12-20T16:28:02;5.40;99.90
9971;DHT22;5026;51.494;11.974;2022-12-20T16:30:29;5.40;99.90
9971;DHT22;5026;51.494;11.974;2022-12-20T16:32:57;5.50;99.90
9971;DHT22;5026;51.494;11.974;2022-12-20T16:35:29;5.40;99.90
9971;DHT22;5026;51.494;11.974;2022-12-20T16:37:57;5.40;99.90
9971;DHT22;5026;51.494;11.974;2022-12-20T16:40:28;5.40;99.90